sensor_id;sensor_type;location;lat;lon;timestamp;temperature;humidity
39103;DHT22;24847;48.218;16.414;2022-08-14T00:04:45;21.40;99.90
39103;DHT22;24847;48.218;16.414;2022-08-14T00:09:47;21.50;99.90
39103;DHT22;24847;48.218;16.414;2022-08-14T00:14:51;21.40;99.90
39103;DHT22;24847;48.218;16.414;2022-08-14T00:19:53;21.50;99.90
39103;DHT22;24847;48.218;16.414;2022-08-14T00:24:55;21.70;99.90
39103;DHT22;24847;48.218;16.414;2022-08-14T00:29:59;21.90;99.90
39103;DHT22;24847;48.218;16.414;2022-08-14T00:35:01;21.90;99.90
39103;DHT22;24847;48.218;16.414;2022-08-14T00:40:05;21.90;99.90
39103;DHT22;24847;48.218;16.414;2022-08-14T00:45:12;21.90;99.90
39103;DHT22;24847;48.218;16.414;2022-08-14T00:50:17;21.90;99.90
39103;DHT22;24847;48.218;16.414;2022-08-14T00:55:20;22.00;99.90
39103;DHT22;24847;48.218;16.414;2022-08-14T01:00:24;22.00;99.90
39103;DHT22;24847;48.218;16.414;2022-08-14T01:05:28;21.80;99.90
39103;DHT22;24847;48.218;16.414;2022-08-14T01:10:30;21.60;99.90
39103;DHT22;24847;48.218;16.414;2022-08-14T01:15:53;21.60;99.90
39103;DHT22;24847;48.218;16.414;2022-08-14T01:20:56;21.80;99.90
39103;DHT22;24847;48.218;16.414;2022-08-14T01:26:08;21.60;99.90
39103;DHT22;24847;48.218;16.414;2022-08-14T01:31:12;21.40;99.90
39103;DHT22;24847;48.218;16.414;2022-08-14T01:36:16;21.70;99.90
39103;DHT22;24847;48.218;16.414;2022-08-14T01:41:22;21.60;99.90
39103;DHT22;24847;48.218;16.414;2022-08-14T01:46:28;21.40;99.90
39103;DHT22;24847;48.218;16.414;2022-08-14T01:51:32;21.60;99.90
39103;DHT22;24847;48.218;16.414;2022-08-14T01:56:37;21.20;99.90
39103;DHT22;24847;48.218;16.414;2022-08-14T02:01:41;21.10;99.90
39103;DHT22;24847;48.218;16.414;2022-08-14T02:06:44;21.10;99.90
39103;DHT22;24847;48.218;16.414;2022-08-14T02:11:48;20.80;99.90
39103;DHT22;24847;48.218;16.414;2022-08-14T02:16:52;20.90;99.90
39103;DHT22;24847;48.218;16.414;2022-08-14T02:21:56;20.80;99.90
39103;DHT22;24847;48.218;16.414;2022-08-14T02:27:00;20.80;99.90
39103;DHT22;24847;48.218;16.414;2022-08-14T02:32:03;21.00;99.90
39103;DHT22;24847;48.218;16.414;2022-08-14T02:37:09;20.90;99.90
39103;DHT22;24847;48.218;16.414;2022-08-14T02:42:18;20.90;99.90
39103;DHT22;24847;48.218;16.414;2022-08-14T02:47:21;21.30;99.90
39103;DHT22;24847;48.218;16.414;2022-08-14T02:52:24;21.10;99.90
39103;DHT22;24847;48.218;16.414;2022-08-14T02:57:29;21.20;99.90
39103;DHT22;24847;48.218;16.414;2022-08-14T03:02:32;21.20;99.90
39103;DHT22;24847;48.218;16.414;2022-08-14T03:07:35;21.40;99.90
39103;DHT22;24847;48.218;16.414;2022-08-14T03:12:39;21.40;99.90
39103;DHT22;24847;48.218;16.414;2022-08-14T03:17:41;21.40;99.90
39103;DHT22;24847;48.218;16.414;2022-08-14T03:22:44;21.40;99.90
39103;DHT22;24847;48.218;16.414;2022-08-14T03:27:47;21.30;99.90
39103;DHT22;24847;48.218;16.414;2022-08-14T03:32:50;21.30;99.90
39103;DHT22;24847;48.218;16.414;2022-08-14T03:37:53;21.10;99.90
39103;DHT22;24847;48.218;16.414;2022-08-14T03:42:57;21.30;99.90
39103;DHT22;24847;48.218;16.414;2022-08-14T03:47:59;21.10;99.90
39103;DHT22;24847;48.218;16.414;2022-08-14T03:53:04;21.10;99.90
39103;DHT22;24847;48.218;16.414;2022-08-14T03:58:08;21.10;99.90
39103;DHT22;24847;48.218;16.414;2022-08-14T04:03:12;21.30;99.90
39103;DHT22;24847;48.218;16.414;2022-08-14T04:08:15;21.10;99.90
39103;DHT22;24847;48.218;16.414;2022-08-14T04:13:19;20.90;99.90
39103;DHT22;24847;48.218;16.414;2022-08-14T04:18:22;20.80;99.90
39103;DHT22;24847;48.218;16.414;2022-08-14T04:23:25;20.80;99.90
39103;DHT22;24847;48.218;16.414;2022-08-14T04:28:29;20.80;99.90
39103;DHT22;24847;48.218;16.414;2022-08-14T04:33:34;20.90;99.90
39103;DHT22;24847;48.218;16.414;2022-08-14T04:38:36;20.90;99.90
39103;DHT22;24847;48.218;16.414;2022-08-14T04:43:57;20.90;99.90
39103;DHT22;24847;48.218;16.414;2022-08-14T04:49:00;20.80;99.90
39103;DHT22;24847;48.218;16.414;2022-08-14T04:54:02;21.00;99.90
39103;DHT22;24847;48.218;16.414;2022-08-14T04:59:06;21.00;99.90
39103;DHT22;24847;48.218;16.414;2022-08-14T05:04:08;20.90;99.90
39103;DHT22;24847;48.218;16.414;2022-08-14T05:09:11;21.00;99.90
39103;DHT22;24847;48.218;16.414;2022-08-14T05:14:15;20.80;99.90
39103;DHT22;24847;48.218;16.414;2022-08-14T05:19:18;20.90;99.90
39103;DHT22;24847;48.218;16.414;2022-08-14T05:24:21;20.80;99.90
39103;DHT22;24847;48.218;16.414;2022-08-14T05:29:25;20.70;99.90
39103;DHT22;24847;48.218;16.414;2022-08-14T05:34:28;20.80;99.90
39103;DHT22;24847;48.218;16.414;2022-08-14T05:39:30;20.80;99.90
39103;DHT22;24847;48.218;16.414;2022-08-14T05:44:34;20.80;99.90
39103;DHT22;24847;48.218;16.414;2022-08-14T05:49:36;20.80;99.90
39103;DHT22;24847;48.218;16.414;2022-08-14T05:54:39;20.80;99.90
39103;DHT22;24847;48.218;16.414;2022-08-14T05:59:43;21.00;99.90
39103;DHT22;24847;48.218;16.414;2022-08-14T06:04:45;21.50;99.90
39103;DHT22;24847;48.218;16.414;2022-08-14T06:09:47;21.40;99.90
39103;DHT22;24847;48.218;16.414;2022-08-14T06:14:51;21.50;99.90
39103;DHT22;24847;48.218;16.414;2022-08-14T06:19:53;21.40;99.90
39103;DHT22;24847;48.218;16.414;2022-08-14T06:24:55;22.30;99.90
39103;DHT22;24847;48.218;16.414;2022-08-14T06:30:00;22.50;99.90
39103;DHT22;24847;48.218;16.414;2022-08-14T06:35:02;22.10;99.90
39103;DHT22;24847;48.218;16.414;2022-08-14T06:40:07;21.40;99.90
39103;DHT22;24847;48.218;16.414;2022-08-14T06:45:13;21.40;99.90
39103;DHT22;24847;48.218;16.414;2022-08-14T06:50:17;21.60;99.90
39103;DHT22;24847;48.218;16.414;2022-08-14T06:55:20;21.50;99.90
39103;DHT22;24847;48.218;16.414;2022-08-14T07:00:26;21.70;99.90
39103;DHT22;24847;48.218;16.414;2022-08-14T07:05:29;21.80;99.90
39103;DHT22;24847;48.218;16.414;2022-08-14T07:10:50;21.70;99.90
39103;DHT22;24847;48.218;16.414;2022-08-14T07:15:56;22.10;99.90
39103;DHT22;24847;48.218;16.414;2022-08-14T07:21:00;22.10;99.90
39103;DHT22;24847;48.218;16.414;2022-08-14T07:26:03;21.70;99.90
39103;DHT22;24847;48.218;16.414;2022-08-14T07:31:09;21.90;99.90
39103;DHT22;24847;48.218;16.414;2022-08-14T07:36:13;21.70;99.90
39103;DHT22;24847;48.218;16.414;2022-08-14T07:41:16;21.80;99.90
39103;DHT22;24847;48.218;16.414;2022-08-14T07:46:20;21.90;99.90
39103;DHT22;24847;48.218;16.414;2022-08-14T07:51:22;21.90;99.90
39103;DHT22;24847;48.218;16.414;2022-08-14T07:56:25;21.90;99.90
39103;DHT22;24847;48.218;16.414;2022-08-14T08:01:29;21.90;99.90
39103;DHT22;24847;48.218;16.414;2022-08-14T08:06:33;22.10;99.90
39103;DHT22;24847;48.218;16.414;2022-08-14T08:11:38;22.00;99.90
39103;DHT22;24847;48.218;16.414;2022-08-14T08:16:44;21.90;99.90
39103;DHT22;24847;48.218;16.414;2022-08-14T08:21:47;22.20;99.90
39103;DHT22;24847;48.218;16.414;2022-08-14T08:26:49;22.40;99.90
39103;DHT22;24847;48.218;16.414;2022-08-14T08:31:53;22.40;99.90
39103;DHT22;24847;48.218;16.414;2022-08-14T08:36:57;22.70;99.90
39103;DHT22;24847;48.218;16.414;2022-08-14T08:41:59;22.90;99.90
39103;DHT22;24847;48.218;16.414;2022-08-14T08:47:03;22.80;99.90
39103;DHT22;24847;48.218;16.414;2022-08-14T08:52:07;22.80;99.90
39103;DHT22;24847;48.218;16.414;2022-08-14T08:57:10;23.10;99.90
39103;DHT22;24847;48.218;16.414;2022-08-14T09:02:15;23.00;99.90
39103;DHT22;24847;48.218;16.414;2022-08-14T09:07:18;23.50;99.90
39103;DHT22;24847;48.218;16.414;2022-08-14T09:12:20;23.70;99.90
39103;DHT22;24847;48.218;16.414;2022-08-14T09:17:24;23.40;99.90
39103;DHT22;24847;48.218;16.414;2022-08-14T09:22:27;23.70;99.90
39103;DHT22;24847;48.218;16.414;2022-08-14T09:27:30;23.70;99.90
39103;DHT22;24847;48.218;16.414;2022-08-14T09:32:42;23.40;99.90
39103;DHT22;24847;48.218;16.414;2022-08-14T09:37:57;23.60;99.90
39103;DHT22;24847;48.218;16.414;2022-08-14T09:43:09;23.50;99.90
39103;DHT22;24847;48.218;16.414;2022-08-14T09:48:17;23.70;99.90
39103;DHT22;24847;48.218;16.414;2022-08-14T09:53:37;23.50;99.90
39103;DHT22;24847;48.218;16.414;2022-08-14T09:58:44;23.60;99.90
39103;DHT22;24847;48.218;16.414;2022-08-14T10:03:50;23.70;99.90
39103;DHT22;24847;48.218;16.414;2022-08-14T10:09:14;23.70;99.90
39103;DHT22;24847;48.218;16.414;2022-08-14T10:14:18;23.70;99.90
39103;DHT22;24847;48.218;16.414;2022-08-14T10:19:25;24.20;99.90
39103;DHT22;24847;48.218;16.414;2022-08-14T10:24:30;25.40;99.90
39103;DHT22;24847;48.218;16.414;2022-08-14T10:29:35;25.40;99.90
39103;DHT22;24847;48.218;16.414;2022-08-14T10:34:42;24.80;99.90
39103;DHT22;24847;48.218;16.414;2022-08-14T10:39:57;25.30;99.90
39103;DHT22;24847;48.218;16.414;2022-08-14T10:45:01;25.80;99.90
39103;DHT22;24847;48.218;16.414;2022-08-14T10:50:07;26.40;99.10
39103;DHT22;24847;48.218;16.414;2022-08-14T10:55:12;25.60;99.90
39103;DHT22;24847;48.218;16.414;2022-08-14T11:00:18;25.30;99.90
39103;DHT22;24847;48.218;16.414;2022-08-14T11:05:23;25.10;99.90
39103;DHT22;24847;48.218;16.414;2022-08-14T11:10:40;25.30;99.90
39103;DHT22;24847;48.218;16.414;2022-08-14T11:15:46;26.50;99.00
39103;DHT22;24847;48.218;16.414;2022-08-14T11:20:53;26.40;98.40
39103;DHT22;24847;48.218;16.414;2022-08-14T11:25:57;27.00;97.40
39103;DHT22;24847;48.218;16.414;2022-08-14T11:31:02;26.20;98.20
39103;DHT22;24847;48.218;16.414;2022-08-14T11:36:07;25.60;98.70
39103;DHT22;24847;48.218;16.414;2022-08-14T11:41:13;25.60;99.00
39103;DHT22;24847;48.218;16.414;2022-08-14T11:46:16;26.30;97.80
39103;DHT22;24847;48.218;16.414;2022-08-14T11:51:24;25.80;98.40
39103;DHT22;24847;48.218;16.414;2022-08-14T11:56:33;25.50;98.80
39103;DHT22;24847;48.218;16.414;2022-08-14T12:01:36;25.50;98.90
39103;DHT22;24847;48.218;16.414;2022-08-14T12:06:48;25.50;98.60
39103;DHT22;24847;48.218;16.414;2022-08-14T12:11:52;25.30;98.70
39103;DHT22;24847;48.218;16.414;2022-08-14T12:17:00;25.10;98.70
39103;DHT22;24847;48.218;16.414;2022-08-14T12:22:05;25.10;98.70
39103;DHT22;24847;48.218;16.414;2022-08-14T12:27:07;25.00;99.10
39103;DHT22;24847;48.218;16.414;2022-08-14T12:32:09;25.20;98.80
39103;DHT22;24847;48.218;16.414;2022-08-14T12:37:13;24.90;99.00
39103;DHT22;24847;48.218;16.414;2022-08-14T12:42:15;24.90;99.30
39103;DHT22;24847;48.218;16.414;2022-08-14T12:47:24;25.10;98.60
39103;DHT22;24847;48.218;16.414;2022-08-14T12:52:33;25.10;98.20
39103;DHT22;24847;48.218;16.414;2022-08-14T12:57:40;25.10;98.50
39103;DHT22;24847;48.218;16.414;2022-08-14T13:02:45;25.00;98.40
39103;DHT22;24847;48.218;16.414;2022-08-14T13:07:53;25.10;98.30
39103;DHT22;24847;48.218;16.414;2022-08-14T13:12:57;25.10;98.70
39103;DHT22;24847;48.218;16.414;2022-08-14T13:18:02;25.20;98.10
39103;DHT22;24847;48.218;16.414;2022-08-14T13:23:07;25.30;98.20
39103;DHT22;24847;48.218;16.414;2022-08-14T13:28:11;25.70;97.70
39103;DHT22;24847;48.218;16.414;2022-08-14T13:33:16;25.90;97.40
39103;DHT22;24847;48.218;16.414;2022-08-14T13:38:22;25.80;97.20
39103;DHT22;24847;48.218;16.414;2022-08-14T13:43:25;25.60;97.70
39103;DHT22;24847;48.218;16.414;2022-08-14T13:48:27;25.60;97.80
39103;DHT22;24847;48.218;16.414;2022-08-14T13:53:35;25.70;97.20
39103;DHT22;24847;48.218;16.414;2022-08-14T13:58:45;25.60;97.10
39103;DHT22;24847;48.218;16.414;2022-08-14T14:03:53;25.80;96.80
39103;DHT22;24847;48.218;16.414;2022-08-14T14:08:58;25.80;96.80
39103;DHT22;24847;48.218;16.414;2022-08-14T14:14:03;25.90;96.60
39103;DHT22;24847;48.218;16.414;2022-08-14T14:19:05;25.90;96.50
39103;DHT22;24847;48.218;16.414;2022-08-14T14:24:09;25.90;96.50
39103;DHT22;24847;48.218;16.414;2022-08-14T14:29:13;26.30;95.60
39103;DHT22;24847;48.218;16.414;2022-08-14T14:34:16;26.10;95.40
39103;DHT22;24847;48.218;16.414;2022-08-14T14:39:22;26.10;96.00
39103;DHT22;24847;48.218;16.414;2022-08-14T14:44:32;26.20;95.40
39103;DHT22;24847;48.218;16.414;2022-08-14T14:49:41;26.30;95.20
39103;DHT22;24847;48.218;16.414;2022-08-14T14:54:47;26.60;95.40
39103;DHT22;24847;48.218;16.414;2022-08-14T14:59:50;26.70;95.10
39103;DHT22;24847;48.218;16.414;2022-08-14T15:04:52;26.50;95.00
39103;DHT22;24847;48.218;16.414;2022-08-14T15:09:57;26.50;94.20
39103;DHT22;24847;48.218;16.414;2022-08-14T15:14:59;26.50;93.60
39103;DHT22;24847;48.218;16.414;2022-08-14T15:20:03;26.60;93.40
39103;DHT22;24847;48.218;16.414;2022-08-14T15:25:09;26.70;93.20
39103;DHT22;24847;48.218;16.414;2022-08-14T15:30:13;26.50;93.20
39103;DHT22;24847;48.218;16.414;2022-08-14T15:35:17;26.60;92.80
39103;DHT22;24847;48.218;16.414;2022-08-14T15:40:22;26.70;92.40
39103;DHT22;24847;48.218;16.414;2022-08-14T15:45:25;26.70;92.80
39103;DHT22;24847;48.218;16.414;2022-08-14T15:50:27;26.70;92.60
39103;DHT22;24847;48.218;16.414;2022-08-14T15:55:31;26.50;92.80
39103;DHT22;24847;48.218;16.414;2022-08-14T16:00:35;26.50;93.20
39103;DHT22;24847;48.218;16.414;2022-08-14T16:05:55;26.40;93.00
39103;DHT22;24847;48.218;16.414;2022-08-14T16:11:01;26.30;93.10
39103;DHT22;24847;48.218;16.414;2022-08-14T16:16:05;26.20;93.30
39103;DHT22;24847;48.218;16.414;2022-08-14T16:21:10;26.50;93.00
39103;DHT22;24847;48.218;16.414;2022-08-14T16:26:16;26.30;93.30
39103;DHT22;24847;48.218;16.414;2022-08-14T16:31:22;26.20;93.30
39103;DHT22;24847;48.218;16.414;2022-08-14T16:36:31;26.30;93.30
39103;DHT22;24847;48.218;16.414;2022-08-14T16:41:38;26.20;93.10
39103;DHT22;24847;48.218;16.414;2022-08-14T16:46:41;26.20;92.70
39103;DHT22;24847;48.218;16.414;2022-08-14T16:51:45;26.10;93.00
39103;DHT22;24847;48.218;16.414;2022-08-14T16:56:49;25.90;93.20
39103;DHT22;24847;48.218;16.414;2022-08-14T17:01:55;25.90;93.40
39103;DHT22;24847;48.218;16.414;2022-08-14T17:06:59;26.00;93.70
39103;DHT22;24847;48.218;16.414;2022-08-14T17:12:07;26.00;93.50
39103;DHT22;24847;48.218;16.414;2022-08-14T17:17:11;25.80;93.80
39103;DHT22;24847;48.218;16.414;2022-08-14T17:22:13;25.80;94.00
39103;DHT22;24847;48.218;16.414;2022-08-14T17:27:20;25.80;94.10
39103;DHT22;24847;48.218;16.414;2022-08-14T17:32:23;25.50;94.40
39103;DHT22;24847;48.218;16.414;2022-08-14T17:37:31;25.60;94.60
39103;DHT22;24847;48.218;16.414;2022-08-14T17:42:56;25.40;95.00
39103;DHT22;24847;48.218;16.414;2022-08-14T17:48:04;25.40;95.30
39103;DHT22;24847;48.218;16.414;2022-08-14T17:53:09;25.50;95.30
39103;DHT22;24847;48.218;16.414;2022-08-14T17:58:15;25.40;95.30
39103;DHT22;24847;48.218;16.414;2022-08-14T18:03:20;25.30;95.20
39103;DHT22;24847;48.218;16.414;2022-08-14T18:08:23;25.20;95.40
39103;DHT22;24847;48.218;16.414;2022-08-14T18:13:27;25.20;95.50
39103;DHT22;24847;48.218;16.414;2022-08-14T18:18:31;25.10;95.50
39103;DHT22;24847;48.218;16.414;2022-08-14T18:23:33;25.10;95.80
39103;DHT22;24847;48.218;16.414;2022-08-14T18:28:36;25.10;95.80
39103;DHT22;24847;48.218;16.414;2022-08-14T18:33:43;24.90;96.40
39103;DHT22;24847;48.218;16.414;2022-08-14T18:39:20;24.90;96.10
39103;DHT22;24847;48.218;16.414;2022-08-14T18:45:06;24.90;96.20
39103;DHT22;24847;48.218;16.414;2022-08-14T18:50:12;24.80;96.30
39103;DHT22;24847;48.218;16.414;2022-08-14T18:55:38;24.80;96.50
39103;DHT22;24847;48.218;16.414;2022-08-14T19:00:54;24.70;96.70
39103;DHT22;24847;48.218;16.414;2022-08-14T19:05:58;24.60;97.00
39103;DHT22;24847;48.218;16.414;2022-08-14T19:11:03;24.50;97.20
39103;DHT22;24847;48.218;16.414;2022-08-14T19:16:10;24.30;98.10
39103;DHT22;24847;48.218;16.414;2022-08-14T19:21:23;24.10;98.90
39103;DHT22;24847;48.218;16.414;2022-08-14T19:26:28;24.20;99.30
39103;DHT22;24847;48.218;16.414;2022-08-14T19:31:36;24.20;99.40
39103;DHT22;24847;48.218;16.414;2022-08-14T19:36:44;24.10;99.40
39103;DHT22;24847;48.218;16.414;2022-08-14T19:41:53;24.10;99.70
39103;DHT22;24847;48.218;16.414;2022-08-14T19:46:57;23.90;99.90
39103;DHT22;24847;48.218;16.414;2022-08-14T19:52:00;23.70;99.90
39103;DHT22;24847;48.218;16.414;2022-08-14T19:57:03;23.90;99.90
39103;DHT22;24847;48.218;16.414;2022-08-14T20:02:07;24.10;99.90
39103;DHT22;24847;48.218;16.414;2022-08-14T20:07:25;24.10;99.90
39103;DHT22;24847;48.218;16.414;2022-08-14T20:12:28;24.10;99.90
39103;DHT22;24847;48.218;16.414;2022-08-14T20:17:32;24.10;99.90
39103;DHT22;24847;48.218;16.414;2022-08-14T20:22:35;24.00;99.90
39103;DHT22;24847;48.218;16.414;2022-08-14T20:27:37;24.00;99.80
39103;DHT22;24847;48.218;16.414;2022-08-14T20:32:44;24.00;99.70
39103;DHT22;24847;48.218;16.414;2022-08-14T20:37:54;23.40;99.90
39103;DHT22;24847;48.218;16.414;2022-08-14T20:43:01;23.00;99.90
39103;DHT22;24847;48.218;16.414;2022-08-14T20:48:26;22.70;99.90
39103;DHT22;24847;48.218;16.414;2022-08-14T20:53:32;22.50;99.90
39103;DHT22;24847;48.218;16.414;2022-08-14T20:58:37;22.50;99.90
39103;DHT22;24847;48.218;16.414;2022-08-14T21:03:53;23.00;99.90
39103;DHT22;24847;48.218;16.414;2022-08-14T21:09:00;23.20;99.90
39103;DHT22;24847;48.218;16.414;2022-08-14T21:14:05;23.30;99.90
39103;DHT22;24847;48.218;16.414;2022-08-14T21:19:09;23.40;99.90
39103;DHT22;24847;48.218;16.414;2022-08-14T21:24:16;23.40;99.90
39103;DHT22;24847;48.218;16.414;2022-08-14T21:29:22;23.20;99.90
39103;DHT22;24847;48.218;16.414;2022-08-14T21:34:26;23.10;99.90
39103;DHT22;24847;48.218;16.414;2022-08-14T21:39:28;23.30;99.90
39103;DHT22;24847;48.218;16.414;2022-08-14T21:44:31;23.30;99.90
39103;DHT22;24847;48.218;16.414;2022-08-14T21:49:34;23.30;99.90
39103;DHT22;24847;48.218;16.414;2022-08-14T21:54:37;23.20;99.90
39103;DHT22;24847;48.218;16.414;2022-08-14T21:59:42;23.30;99.90
39103;DHT22;24847;48.218;16.414;2022-08-14T22:04:45;23.20;99.90
39103;DHT22;24847;48.218;16.414;2022-08-14T22:09:47;23.10;99.90
39103;DHT22;24847;48.218;16.414;2022-08-14T22:14:50;22.80;99.90
39103;DHT22;24847;48.218;16.414;2022-08-14T22:19:54;22.40;99.90
39103;DHT22;24847;48.218;16.414;2022-08-14T22:24:57;22.30;99.90
39103;DHT22;24847;48.218;16.414;2022-08-14T22:30:00;22.20;99.90
39103;DHT22;24847;48.218;16.414;2022-08-14T22:35:05;22.10;99.90
39103;DHT22;24847;48.218;16.414;2022-08-14T22:40:09;22.00;99.90
39103;DHT22;24847;48.218;16.414;2022-08-14T22:45:12;22.00;99.90
39103;DHT22;24847;48.218;16.414;2022-08-14T22:50:16;21.70;99.90
39103;DHT22;24847;48.218;16.414;2022-08-14T22:55:18;21.60;99.90
39103;DHT22;24847;48.218;16.414;2022-08-14T23:00:22;21.60;99.90
39103;DHT22;24847;48.218;16.414;2022-08-14T23:05:27;21.50;99.90
39103;DHT22;24847;48.218;16.414;2022-08-14T23:10:29;21.40;99.90
39103;DHT22;24847;48.218;16.414;2022-08-14T23:15:33;21.20;99.90
39103;DHT22;24847;48.218;16.414;2022-08-14T23:20:37;21.30;99.90
39103;DHT22;24847;48.218;16.414;2022-08-14T23:25:43;21.20;99.90
39103;DHT22;24847;48.218;16.414;2022-08-14T23:30:47;21.20;99.90
39103;DHT22;24847;48.218;16.414;2022-08-14T23:35:51;21.20;99.90
39103;DHT22;24847;48.218;16.414;2022-08-14T23:40:53;21.10;99.90
39103;DHT22;24847;48.218;16.414;2022-08-14T23:45:56;21.10;99.90
39103;DHT22;24847;48.218;16.414;2022-08-14T23:51:00;21.00;99.90
39103;DHT22;24847;48.218;16.414;2022-08-14T23:56:05;21.10;99.90
